sensor_id;sensor_type;location;lat;lon;timestamp;temperature;humidity
40059;SHT31;25763;49.972;8.568;2023-04-09T00:01:53;8.40;73.60
40059;SHT31;25763;49.972;8.568;2023-04-09T00:04:18;8.36;73.78
40059;SHT31;25763;49.972;8.568;2023-04-09T00:06:44;8.39;73.69
40059;SHT31;25763;49.972;8.568;2023-04-09T00:09:09;8.39;73.78
40059;SHT31;25763;49.972;8.568;2023-04-09T00:11:35;8.40;73.60
40059;SHT31;25763;49.972;8.568;2023-04-09T00:14:00;8.38;73.79
40059;SHT31;25763;49.972;8.568;2023-04-09T00:16:26;8.38;73.75
40059;SHT31;25763;49.972;8.568;2023-04-09T00:18:51;8.35;73.66
40059;SHT31;25763;49.972;8.568;2023-04-09T00:21:16;8.42;73.48
40059;SHT31;25763;49.972;8.568;2023-04-09T00:23:42;8.45;73.49
40059;SHT31;25763;49.972;8.568;2023-04-09T00:26:08;8.36;73.65
40059;SHT31;25763;49.972;8.568;2023-04-09T00:28:33;8.39;73.54
40059;SHT31;25763;49.972;8.568;2023-04-09T00:31:00;8.22;73.88
40059;SHT31;25763;49.972;8.568;2023-04-09T00:33:26;8.25;73.89
40059;SHT31;25763;49.972;8.568;2023-04-09T00:35:51;8.14;74.04
40059;SHT31;25763;49.972;8.568;2023-04-09T00:38:16;8.03;74.34
40059;SHT31;25763;49.972;8.568;2023-04-09T00:40:42;7.97;74.44
40059;SHT31;25763;49.972;8.568;2023-04-09T00:43:08;8.00;74.38
40059;SHT31;25763;49.972;8.568;2023-04-09T00:45:34;8.00;74.18
40059;SHT31;25763;49.972;8.568;2023-04-09T00:48:00;7.91;74.21
40059;SHT31;25763;49.972;8.568;2023-04-09T00:50:26;7.94;74.15
40059;SHT31;25763;49.972;8.568;2023-04-09T00:52:51;8.00;74.10
40059;SHT31;25763;49.972;8.568;2023-04-09T00:55:17;8.03;74.20
40059;SHT31;25763;49.972;8.568;2023-04-09T00:57:43;7.98;74.19
40059;SHT31;25763;49.972;8.568;2023-04-09T01:00:08;7.93;74.05
40059;SHT31;25763;49.972;8.568;2023-04-09T01:02:35;7.85;74.39
40059;SHT31;25763;49.972;8.568;2023-04-09T01:05:01;7.73;74.73
40059;SHT31;25763;49.972;8.568;2023-04-09T01:10:20;7.38;75.86
40059;SHT31;25763;49.972;8.568;2023-04-09T01:15:35;7.16;76.84
40059;SHT31;25763;49.972;8.568;2023-04-09T01:18:06;7.04;77.15
40059;SHT31;25763;49.972;8.568;2023-04-09T01:20:39;6.95;77.50
40059;SHT31;25763;49.972;8.568;2023-04-09T01:23:15;6.92;77.70
40059;SHT31;25763;49.972;8.568;2023-04-09T01:25:48;6.88;77.71
40059;SHT31;25763;49.972;8.568;2023-04-09T01:28:34;6.91;77.62
40059;SHT31;25763;49.972;8.568;2023-04-09T01:31:10;6.96;77.36
40059;SHT31;25763;49.972;8.568;2023-04-09T01:33:38;6.95;77.01
40059;SHT31;25763;49.972;8.568;2023-04-09T01:36:05;6.96;76.90
40059;SHT31;25763;49.972;8.568;2023-04-09T01:38:32;7.03;76.72
40059;SHT31;25763;49.972;8.568;2023-04-09T01:41:00;7.04;76.55
40059;SHT31;25763;49.972;8.568;2023-04-09T01:43:27;7.04;76.42
40059;SHT31;25763;49.972;8.568;2023-04-09T01:45:53;7.06;76.29
40059;SHT31;25763;49.972;8.568;2023-04-09T01:48:19;6.91;76.60
40059;SHT31;25763;49.972;8.568;2023-04-09T01:50:45;6.91;76.82
40059;SHT31;25763;49.972;8.568;2023-04-09T01:53:11;6.91;76.60
40059;SHT31;25763;49.972;8.568;2023-04-09T01:55:36;6.89;76.54
40059;SHT31;25763;49.972;8.568;2023-04-09T01:58:02;6.86;76.49
40059;SHT31;25763;49.972;8.568;2023-04-09T02:00:37;6.83;76.37
40059;SHT31;25763;49.972;8.568;2023-04-09T02:03:10;6.81;76.50
40059;SHT31;25763;49.972;8.568;2023-04-09T02:05:53;6.75;76.62
40059;SHT31;25763;49.972;8.568;2023-04-09T02:08:20;6.76;76.62
40059;SHT31;25763;49.972;8.568;2023-04-09T02:10:50;6.72;76.46
40059;SHT31;25763;49.972;8.568;2023-04-09T02:13:18;6.59;76.81
40059;SHT31;25763;49.972;8.568;2023-04-09T02:15:44;6.42;77.93
40059;SHT31;25763;49.972;8.568;2023-04-09T02:18:23;6.30;78.29
40059;SHT31;25763;49.972;8.568;2023-04-09T02:20:49;6.15;78.67
40059;SHT31;25763;49.972;8.568;2023-04-09T02:23:15;6.07;78.76
40059;SHT31;25763;49.972;8.568;2023-04-09T02:25:42;5.99;79.01
40059;SHT31;25763;49.972;8.568;2023-04-09T02:28:07;5.94;78.94
40059;SHT31;25763;49.972;8.568;2023-04-09T02:30:32;5.82;79.17
40059;SHT31;25763;49.972;8.568;2023-04-09T02:32:58;5.64;79.72
40059;SHT31;25763;49.972;8.568;2023-04-09T02:35:23;5.56;80.22
40059;SHT31;25763;49.972;8.568;2023-04-09T02:37:49;5.50;80.40
40059;SHT31;25763;49.972;8.568;2023-04-09T02:40:14;5.54;80.48
40059;SHT31;25763;49.972;8.568;2023-04-09T02:42:39;5.48;80.81
40059;SHT31;25763;49.972;8.568;2023-04-09T02:45:05;5.51;80.75
40059;SHT31;25763;49.972;8.568;2023-04-09T02:47:31;5.46;80.99
40059;SHT31;25763;49.972;8.568;2023-04-09T02:49:56;5.43;80.96
40059;SHT31;25763;49.972;8.568;2023-04-09T02:52:21;5.40;81.29
40059;SHT31;25763;49.972;8.568;2023-04-09T02:54:49;5.40;81.18
40059;SHT31;25763;49.972;8.568;2023-04-09T02:57:14;5.39;81.33
40059;SHT31;25763;49.972;8.568;2023-04-09T02:59:40;5.47;80.85
40059;SHT31;25763;49.972;8.568;2023-04-09T03:02:05;5.46;80.79
40059;SHT31;25763;49.972;8.568;2023-04-09T03:04:30;5.42;81.00
40059;SHT31;25763;49.972;8.568;2023-04-09T03:06:56;5.42;80.69
40059;SHT31;25763;49.972;8.568;2023-04-09T03:09:21;5.29;81.21
40059;SHT31;25763;49.972;8.568;2023-04-09T03:11:46;5.15;81.65
40059;SHT31;25763;49.972;8.568;2023-04-09T03:14:12;5.09;81.74
40059;SHT31;25763;49.972;8.568;2023-04-09T03:16:37;5.05;81.76
40059;SHT31;25763;49.972;8.568;2023-04-09T03:19:02;5.00;81.97
40059;SHT31;25763;49.972;8.568;2023-04-09T03:21:28;5.00;81.86
40059;SHT31;25763;49.972;8.568;2023-04-09T03:23:53;4.98;81.98
40059;SHT31;25763;49.972;8.568;2023-04-09T03:26:18;4.86;82.29
40059;SHT31;25763;49.972;8.568;2023-04-09T03:28:44;4.83;82.28
40059;SHT31;25763;49.972;8.568;2023-04-09T03:31:09;4.84;82.05
40059;SHT31;25763;49.972;8.568;2023-04-09T03:33:34;4.84;82.00
40059;SHT31;25763;49.972;8.568;2023-04-09T03:36:00;4.75;82.21
40059;SHT31;25763;49.972;8.568;2023-04-09T03:38:25;4.68;82.18
40059;SHT31;25763;49.972;8.568;2023-04-09T03:40:51;4.68;82.21
40059;SHT31;25763;49.972;8.568;2023-04-09T03:43:16;4.68;82.12
40059;SHT31;25763;49.972;8.568;2023-04-09T03:45:41;4.65;82.21
40059;SHT31;25763;49.972;8.568;2023-04-09T03:48:07;4.62;82.30
40059;SHT31;25763;49.972;8.568;2023-04-09T03:50:38;4.63;82.29
40059;SHT31;25763;49.972;8.568;2023-04-09T03:53:04;4.77;81.83
40059;SHT31;25763;49.972;8.568;2023-04-09T03:55:29;4.73;81.62
40059;SHT31;25763;49.972;8.568;2023-04-09T03:57:55;4.69;81.51
40059;SHT31;25763;49.972;8.568;2023-04-09T04:00:20;4.58;81.60
40059;SHT31;25763;49.972;8.568;2023-04-09T04:02:46;4.59;81.49
40059;SHT31;25763;49.972;8.568;2023-04-09T04:05:12;4.31;81.86
40059;SHT31;25763;49.972;8.568;2023-04-09T04:07:37;4.20;82.30
40059;SHT31;25763;49.972;8.568;2023-04-09T04:10:05;4.13;82.51
40059;SHT31;25763;49.972;8.568;2023-04-09T04:12:30;3.94;83.25
40059;SHT31;25763;49.972;8.568;2023-04-09T04:14:56;3.82;83.78
40059;SHT31;25763;49.972;8.568;2023-04-09T04:17:21;3.82;84.10
40059;SHT31;25763;49.972;8.568;2023-04-09T04:19:46;3.59;83.88
40059;SHT31;25763;49.972;8.568;2023-04-09T04:22:12;3.52;84.19
40059;SHT31;25763;49.972;8.568;2023-04-09T04:24:37;3.48;84.51
40059;SHT31;25763;49.972;8.568;2023-04-09T04:27:02;3.46;84.77
40059;SHT31;25763;49.972;8.568;2023-04-09T04:29:28;3.43;84.90
40059;SHT31;25763;49.972;8.568;2023-04-09T04:31:53;3.37;85.10
40059;SHT31;25763;49.972;8.568;2023-04-09T04:34:19;3.40;85.38
40059;SHT31;25763;49.972;8.568;2023-04-09T04:36:44;3.43;85.49
40059;SHT31;25763;49.972;8.568;2023-04-09T04:39:10;3.50;85.41
40059;SHT31;25763;49.972;8.568;2023-04-09T04:41:35;3.39;85.40
40059;SHT31;25763;49.972;8.568;2023-04-09T04:44:01;3.43;85.40
40059;SHT31;25763;49.972;8.568;2023-04-09T04:46:26;3.31;85.45
40059;SHT31;25763;49.972;8.568;2023-04-09T04:48:51;3.26;85.22
40059;SHT31;25763;49.972;8.568;2023-04-09T04:51:17;3.20;85.11
40059;SHT31;25763;49.972;8.568;2023-04-09T04:53:42;3.09;85.10
40059;SHT31;25763;49.972;8.568;2023-04-09T04:56:14;3.02;85.03
40059;SHT31;25763;49.972;8.568;2023-04-09T04:58:40;2.95;85.23
40059;SHT31;25763;49.972;8.568;2023-04-09T05:01:06;2.87;85.26
40059;SHT31;25763;49.972;8.568;2023-04-09T05:03:31;2.87;85.32
40059;SHT31;25763;49.972;8.568;2023-04-09T05:05:56;2.84;85.45
40059;SHT31;25763;49.972;8.568;2023-04-09T05:08:22;2.85;85.41
40059;SHT31;25763;49.972;8.568;2023-04-09T05:10:47;2.91;85.34
40059;SHT31;25763;49.972;8.568;2023-04-09T05:13:13;2.91;85.22
40059;SHT31;25763;49.972;8.568;2023-04-09T05:15:38;2.92;85.04
40059;SHT31;25763;49.972;8.568;2023-04-09T05:18:05;3.03;84.92
40059;SHT31;25763;49.972;8.568;2023-04-09T05:20:30;3.09;84.80
40059;SHT31;25763;49.972;8.568;2023-04-09T05:22:56;3.20;84.68
40059;SHT31;25763;49.972;8.568;2023-04-09T05:25:21;3.20;84.51
40059;SHT31;25763;49.972;8.568;2023-04-09T05:27:47;3.33;84.34
40059;SHT31;25763;49.972;8.568;2023-04-09T05:30:12;3.40;84.17
40059;SHT31;25763;49.972;8.568;2023-04-09T05:32:37;3.37;84.24
40059;SHT31;25763;49.972;8.568;2023-04-09T05:35:03;3.43;84.39
40059;SHT31;25763;49.972;8.568;2023-04-09T05:37:29;3.39;84.37
40059;SHT31;25763;49.972;8.568;2023-04-09T05:39:55;3.43;84.38
40059;SHT31;25763;49.972;8.568;2023-04-09T05:42:20;3.39;84.44
40059;SHT31;25763;49.972;8.568;2023-04-09T05:44:46;3.44;84.56
40059;SHT31;25763;49.972;8.568;2023-04-09T05:47:11;3.55;84.41
40059;SHT31;25763;49.972;8.568;2023-04-09T05:49:37;3.62;84.27
40059;SHT31;25763;49.972;8.568;2023-04-09T05:52:02;3.64;84.19
40059;SHT31;25763;49.972;8.568;2023-04-09T05:54:27;3.68;84.13
40059;SHT31;25763;49.972;8.568;2023-04-09T05:56:53;3.75;84.00
40059;SHT31;25763;49.972;8.568;2023-04-09T05:59:18;3.83;83.93
40059;SHT31;25763;49.972;8.568;2023-04-09T06:01:43;3.96;83.85
40059;SHT31;25763;49.972;8.568;2023-04-09T06:04:09;4.06;83.73
40059;SHT31;25763;49.972;8.568;2023-04-09T06:06:37;4.14;83.58
40059;SHT31;25763;49.972;8.568;2023-04-09T06:09:03;4.10;83.73
40059;SHT31;25763;49.972;8.568;2023-04-09T06:11:30;4.14;83.72
40059;SHT31;25763;49.972;8.568;2023-04-09T06:13:55;4.25;83.81
40059;SHT31;25763;49.972;8.568;2023-04-09T06:16:21;4.32;83.82
40059;SHT31;25763;49.972;8.568;2023-04-09T06:18:47;4.36;83.85
40059;SHT31;25763;49.972;8.568;2023-04-09T06:21:14;4.55;83.73
40059;SHT31;25763;49.972;8.568;2023-04-09T06:23:40;4.80;83.43
40059;SHT31;25763;49.972;8.568;2023-04-09T06:26:05;4.91;83.23
40059;SHT31;25763;49.972;8.568;2023-04-09T06:28:31;5.09;83.08
40059;SHT31;25763;49.972;8.568;2023-04-09T06:30:57;5.21;82.77
40059;SHT31;25763;49.972;8.568;2023-04-09T06:33:23;5.33;82.69
40059;SHT31;25763;49.972;8.568;2023-04-09T06:35:48;5.46;82.66
40059;SHT31;25763;49.972;8.568;2023-04-09T06:38:14;5.60;82.60
40059;SHT31;25763;49.972;8.568;2023-04-09T06:40:40;5.82;82.49
40059;SHT31;25763;49.972;8.568;2023-04-09T06:43:05;5.99;82.04
40059;SHT31;25763;49.972;8.568;2023-04-09T06:45:31;6.10;81.77
40059;SHT31;25763;49.972;8.568;2023-04-09T06:47:58;6.20;81.75
40059;SHT31;25763;49.972;8.568;2023-04-09T06:50:23;6.45;81.43
40059;SHT31;25763;49.972;8.568;2023-04-09T06:52:50;6.59;80.95
40059;SHT31;25763;49.972;8.568;2023-04-09T06:55:15;6.59;80.72
40059;SHT31;25763;49.972;8.568;2023-04-09T06:57:41;6.74;80.55
40059;SHT31;25763;49.972;8.568;2023-04-09T07:00:07;6.93;80.27
40059;SHT31;25763;49.972;8.568;2023-04-09T07:02:33;6.89;80.22
40059;SHT31;25763;49.972;8.568;2023-04-09T07:04:59;6.99;80.61
40059;SHT31;25763;49.972;8.568;2023-04-09T07:07:25;7.14;80.33
40059;SHT31;25763;49.972;8.568;2023-04-09T07:09:52;7.39;80.08
40059;SHT31;25763;49.972;8.568;2023-04-09T07:12:31;7.51;79.15
40059;SHT31;25763;49.972;8.568;2023-04-09T07:14:57;7.60;79.13
40059;SHT31;25763;49.972;8.568;2023-04-09T07:17:23;7.63;79.52
40059;SHT31;25763;49.972;8.568;2023-04-09T07:19:48;7.91;79.12
40059;SHT31;25763;49.972;8.568;2023-04-09T07:22:16;8.18;78.72
40059;SHT31;25763;49.972;8.568;2023-04-09T07:24:41;8.53;78.49
40059;SHT31;25763;49.972;8.568;2023-04-09T07:27:06;8.67;77.29
40059;SHT31;25763;49.972;8.568;2023-04-09T07:29:32;8.67;76.76
40059;SHT31;25763;49.972;8.568;2023-04-09T07:31:57;8.60;76.38
40059;SHT31;25763;49.972;8.568;2023-04-09T07:34:25;8.52;75.96
40059;SHT31;25763;49.972;8.568;2023-04-09T07:36:50;8.32;76.66
40059;SHT31;25763;49.972;8.568;2023-04-09T07:39:17;8.47;76.46
40059;SHT31;25763;49.972;8.568;2023-04-09T07:41:42;8.73;75.74
40059;SHT31;25763;49.972;8.568;2023-04-09T07:44:08;9.14;75.81
40059;SHT31;25763;49.972;8.568;2023-04-09T07:46:33;9.43;74.45
40059;SHT31;25763;49.972;8.568;2023-04-09T07:48:58;9.09;74.32
40059;SHT31;25763;49.972;8.568;2023-04-09T07:51:24;9.02;74.35
40059;SHT31;25763;49.972;8.568;2023-04-09T07:53:49;9.36;74.59
40059;SHT31;25763;49.972;8.568;2023-04-09T07:56:15;10.03;73.97
40059;SHT31;25763;49.972;8.568;2023-04-09T07:58:40;9.95;71.60
40059;SHT31;25763;49.972;8.568;2023-04-09T08:01:05;10.16;72.21
40059;SHT31;25763;49.972;8.568;2023-04-09T08:03:31;9.82;72.39
40059;SHT31;25763;49.972;8.568;2023-04-09T08:05:56;9.99;71.58
40059;SHT31;25763;49.972;8.568;2023-04-09T08:08:21;10.12;71.17
40059;SHT31;25763;49.972;8.568;2023-04-09T08:10:47;10.44;70.89
40059;SHT31;25763;49.972;8.568;2023-04-09T08:13:12;10.89;69.95
40059;SHT31;25763;49.972;8.568;2023-04-09T08:15:38;10.48;70.01
40059;SHT31;25763;49.972;8.568;2023-04-09T08:18:03;10.57;69.54
40059;SHT31;25763;49.972;8.568;2023-04-09T08:20:29;10.90;69.10
40059;SHT31;25763;49.972;8.568;2023-04-09T08:22:57;10.99;68.18
40059;SHT31;25763;49.972;8.568;2023-04-09T08:25:23;10.77;67.85
40059;SHT31;25763;49.972;8.568;2023-04-09T08:27:48;11.00;68.16
40059;SHT31;25763;49.972;8.568;2023-04-09T08:30:14;10.94;68.49
40059;SHT31;25763;49.972;8.568;2023-04-09T08:32:40;11.04;67.84
40059;SHT31;25763;49.972;8.568;2023-04-09T08:35:05;10.85;68.34
40059;SHT31;25763;49.972;8.568;2023-04-09T08:37:31;11.18;67.42
40059;SHT31;25763;49.972;8.568;2023-04-09T08:39:56;11.38;65.99
40059;SHT31;25763;49.972;8.568;2023-04-09T08:42:22;11.31;65.76
40059;SHT31;25763;49.972;8.568;2023-04-09T08:44:49;11.56;64.98
40059;SHT31;25763;49.972;8.568;2023-04-09T08:47:14;11.66;64.37
40059;SHT31;25763;49.972;8.568;2023-04-09T08:49:40;11.87;64.25
40059;SHT31;25763;49.972;8.568;2023-04-09T08:52:06;11.93;64.04
40059;SHT31;25763;49.972;8.568;2023-04-09T08:54:31;11.77;64.24
40059;SHT31;25763;49.972;8.568;2023-04-09T08:56:57;11.77;63.94
40059;SHT31;25763;49.972;8.568;2023-04-09T08:59:23;12.15;63.54
40059;SHT31;25763;49.972;8.568;2023-04-09T09:01:49;11.77;63.95
40059;SHT31;25763;49.972;8.568;2023-04-09T09:04:43;12.18;63.16
40059;SHT31;25763;49.972;8.568;2023-04-09T09:07:09;12.14;62.70
40059;SHT31;25763;49.972;8.568;2023-04-09T09:09:58;12.11;63.04
40059;SHT31;25763;49.972;8.568;2023-04-09T09:12:37;11.95;62.44
40059;SHT31;25763;49.972;8.568;2023-04-09T09:15:05;11.95;62.51
40059;SHT31;25763;49.972;8.568;2023-04-09T09:17:31;12.09;62.83
40059;SHT31;25763;49.972;8.568;2023-04-09T09:19:57;12.61;62.09
40059;SHT31;25763;49.972;8.568;2023-04-09T09:22:23;12.77;60.62
40059;SHT31;25763;49.972;8.568;2023-04-09T09:24:51;12.47;60.44
40059;SHT31;25763;49.972;8.568;2023-04-09T09:27:36;12.63;60.25
40059;SHT31;25763;49.972;8.568;2023-04-09T09:30:04;12.75;59.87
40059;SHT31;25763;49.972;8.568;2023-04-09T09:32:33;13.19;59.58
40059;SHT31;25763;49.972;8.568;2023-04-09T09:35:04;13.14;58.08
40059;SHT31;25763;49.972;8.568;2023-04-09T09:37:30;13.78;58.56
40059;SHT31;25763;49.972;8.568;2023-04-09T09:39:59;13.64;57.79
40059;SHT31;25763;49.972;8.568;2023-04-09T09:42:24;12.82;60.15
40059;SHT31;25763;49.972;8.568;2023-04-09T09:44:52;12.97;59.22
40059;SHT31;25763;49.972;8.568;2023-04-09T09:47:18;13.01;60.25
40059;SHT31;25763;49.972;8.568;2023-04-09T09:49:48;13.12;60.03
40059;SHT31;25763;49.972;8.568;2023-04-09T09:52:14;13.24;60.13
40059;SHT31;25763;49.972;8.568;2023-04-09T09:54:41;12.64;60.30
40059;SHT31;25763;49.972;8.568;2023-04-09T09:57:10;13.40;59.36
40059;SHT31;25763;49.972;8.568;2023-04-09T09:59:53;13.88;55.02
40059;SHT31;25763;49.972;8.568;2023-04-09T10:02:22;13.89;53.30
40059;SHT31;25763;49.972;8.568;2023-04-09T10:04:48;13.58;54.13
40059;SHT31;25763;49.972;8.568;2023-04-09T10:07:15;13.18;56.37
40059;SHT31;25763;49.972;8.568;2023-04-09T10:09:44;13.89;55.04
40059;SHT31;25763;49.972;8.568;2023-04-09T10:12:13;13.86;53.50
40059;SHT31;25763;49.972;8.568;2023-04-09T10:14:38;14.06;53.94
40059;SHT31;25763;49.972;8.568;2023-04-09T10:17:04;13.75;53.23
40059;SHT31;25763;49.972;8.568;2023-04-09T10:19:30;13.50;54.77
40059;SHT31;25763;49.972;8.568;2023-04-09T10:22:10;13.86;53.14
40059;SHT31;25763;49.972;8.568;2023-04-09T10:24:36;13.89;51.59
40059;SHT31;25763;49.972;8.568;2023-04-09T10:27:09;13.85;52.27
40059;SHT31;25763;49.972;8.568;2023-04-09T10:29:41;14.33;51.83
40059;SHT31;25763;49.972;8.568;2023-04-09T10:32:09;14.31;50.35
40059;SHT31;25763;49.972;8.568;2023-04-09T10:34:41;14.33;50.97
40059;SHT31;25763;49.972;8.568;2023-04-09T10:37:10;14.59;51.95
40059;SHT31;25763;49.972;8.568;2023-04-09T10:39:40;14.71;49.92
40059;SHT31;25763;49.972;8.568;2023-04-09T10:42:34;14.67;49.50
40059;SHT31;25763;49.972;8.568;2023-04-09T10:45:08;14.54;48.56
40059;SHT31;25763;49.972;8.568;2023-04-09T10:47:35;14.57;50.54
40059;SHT31;25763;49.972;8.568;2023-04-09T10:52:45;14.21;53.54
40059;SHT31;25763;49.972;8.568;2023-04-09T10:55:35;13.95;53.23
40059;SHT31;25763;49.972;8.568;2023-04-09T10:58:06;13.86;53.66
40059;SHT31;25763;49.972;8.568;2023-04-09T11:00:36;13.78;53.09
40059;SHT31;25763;49.972;8.568;2023-04-09T11:05:36;13.73;48.86
40059;SHT31;25763;49.972;8.568;2023-04-09T11:10:33;14.30;48.19
40059;SHT31;25763;49.972;8.568;2023-04-09T11:12:59;14.41;46.23
40059;SHT31;25763;49.972;8.568;2023-04-09T11:15:25;14.30;47.67
40059;SHT31;25763;49.972;8.568;2023-04-09T11:17:51;14.24;48.60
40059;SHT31;25763;49.972;8.568;2023-04-09T11:20:20;14.26;48.25
40059;SHT31;25763;49.972;8.568;2023-04-09T11:22:48;14.58;47.95
40059;SHT31;25763;49.972;8.568;2023-04-09T11:25:39;14.42;50.08
40059;SHT31;25763;49.972;8.568;2023-04-09T11:28:05;14.35;50.30
40059;SHT31;25763;49.972;8.568;2023-04-09T11:30:32;14.24;51.19
40059;SHT31;25763;49.972;8.568;2023-04-09T11:32:58;14.14;50.54
40059;SHT31;25763;49.972;8.568;2023-04-09T11:35:24;14.02;51.13
40059;SHT31;25763;49.972;8.568;2023-04-09T11:37:50;13.91;50.34
40059;SHT31;25763;49.972;8.568;2023-04-09T11:40:20;13.79;50.39
40059;SHT31;25763;49.972;8.568;2023-04-09T11:42:53;14.18;50.00
40059;SHT31;25763;49.972;8.568;2023-04-09T11:45:23;14.44;49.81
40059;SHT31;25763;49.972;8.568;2023-04-09T11:47:50;14.45;49.02
40059;SHT31;25763;49.972;8.568;2023-04-09T11:50:16;14.82;48.54
40059;SHT31;25763;49.972;8.568;2023-04-09T11:52:43;14.93;47.36
40059;SHT31;25763;49.972;8.568;2023-04-09T11:55:10;14.77;48.28
40059;SHT31;25763;49.972;8.568;2023-04-09T12:00:08;14.86;47.28
40059;SHT31;25763;49.972;8.568;2023-04-09T12:02:36;14.83;48.13
40059;SHT31;25763;49.972;8.568;2023-04-09T12:05:02;15.18;46.66
40059;SHT31;25763;49.972;8.568;2023-04-09T12:07:32;15.21;46.99
40059;SHT31;25763;49.972;8.568;2023-04-09T12:10:05;14.73;48.03
40059;SHT31;25763;49.972;8.568;2023-04-09T12:12:41;14.34;48.30
40059;SHT31;25763;49.972;8.568;2023-04-09T12:15:23;14.54;48.65
40059;SHT31;25763;49.972;8.568;2023-04-09T12:17:56;14.52;49.16
40059;SHT31;25763;49.972;8.568;2023-04-09T12:20:30;14.41;48.36
40059;SHT31;25763;49.972;8.568;2023-04-09T12:22:56;14.61;47.44
40059;SHT31;25763;49.972;8.568;2023-04-09T12:25:22;14.72;48.32
40059;SHT31;25763;49.972;8.568;2023-04-09T12:27:48;14.79;46.69
40059;SHT31;25763;49.972;8.568;2023-04-09T12:30:13;14.94;46.45
40059;SHT31;25763;49.972;8.568;2023-04-09T12:32:38;14.86;46.25
40059;SHT31;25763;49.972;8.568;2023-04-09T12:35:04;14.73;45.81
40059;SHT31;25763;49.972;8.568;2023-04-09T12:37:29;15.17;46.88
40059;SHT31;25763;49.972;8.568;2023-04-09T12:39:55;15.32;46.12
40059;SHT31;25763;49.972;8.568;2023-04-09T12:42:20;15.03;43.83
40059;SHT31;25763;49.972;8.568;2023-04-09T12:44:46;14.93;44.52
40059;SHT31;25763;49.972;8.568;2023-04-09T12:47:11;14.54;43.37
40059;SHT31;25763;49.972;8.568;2023-04-09T12:49:37;14.67;44.69
40059;SHT31;25763;49.972;8.568;2023-04-09T12:52:03;14.71;44.50
40059;SHT31;25763;49.972;8.568;2023-04-09T12:54:28;15.07;45.71
40059;SHT31;25763;49.972;8.568;2023-04-09T12:56:54;15.07;43.80
40059;SHT31;25763;49.972;8.568;2023-04-09T12:59:19;14.86;44.37
40059;SHT31;25763;49.972;8.568;2023-04-09T13:01:44;14.77;44.73
40059;SHT31;25763;49.972;8.568;2023-04-09T13:04:10;14.58;42.95
40059;SHT31;25763;49.972;8.568;2023-04-09T13:06:36;15.11;42.89
40059;SHT31;25763;49.972;8.568;2023-04-09T13:09:01;15.61;42.89
40059;SHT31;25763;49.972;8.568;2023-04-09T13:11:26;16.14;42.83
40059;SHT31;25763;49.972;8.568;2023-04-09T13:13:52;16.29;41.73
40059;SHT31;25763;49.972;8.568;2023-04-09T13:16:17;15.55;40.20
40059;SHT31;25763;49.972;8.568;2023-04-09T13:18:43;16.05;41.92
40059;SHT31;25763;49.972;8.568;2023-04-09T13:21:08;16.36;41.30
40059;SHT31;25763;49.972;8.568;2023-04-09T13:23:34;16.65;42.46
40059;SHT31;25763;49.972;8.568;2023-04-09T13:25:59;16.28;40.53
40059;SHT31;25763;49.972;8.568;2023-04-09T13:28:25;15.30;41.17
40059;SHT31;25763;49.972;8.568;2023-04-09T13:30:51;15.44;41.77
40059;SHT31;25763;49.972;8.568;2023-04-09T13:33:16;15.59;42.68
40059;SHT31;25763;49.972;8.568;2023-04-09T13:35:42;15.44;43.15
40059;SHT31;25763;49.972;8.568;2023-04-09T13:38:07;15.61;43.29
40059;SHT31;25763;49.972;8.568;2023-04-09T13:40:33;16.08;42.03
40059;SHT31;25763;49.972;8.568;2023-04-09T13:42:58;16.75;41.91
40059;SHT31;25763;49.972;8.568;2023-04-09T13:45:23;17.18;40.54
40059;SHT31;25763;49.972;8.568;2023-04-09T13:47:49;16.53;39.76
40059;SHT31;25763;49.972;8.568;2023-04-09T13:50:15;16.63;41.18
40059;SHT31;25763;49.972;8.568;2023-04-09T13:52:40;16.25;41.67
40059;SHT31;25763;49.972;8.568;2023-04-09T13:55:06;15.90;42.26
40059;SHT31;25763;49.972;8.568;2023-04-09T13:57:32;15.46;44.12
40059;SHT31;25763;49.972;8.568;2023-04-09T13:59:57;15.31;44.19
40059;SHT31;25763;49.972;8.568;2023-04-09T14:02:26;15.34;43.90
40059;SHT31;25763;49.972;8.568;2023-04-09T14:04:52;14.89;43.77
40059;SHT31;25763;49.972;8.568;2023-04-09T14:07:18;15.12;43.47
40059;SHT31;25763;49.972;8.568;2023-04-09T14:09:43;15.39;44.27
40059;SHT31;25763;49.972;8.568;2023-04-09T14:12:09;15.22;43.13
40059;SHT31;25763;49.972;8.568;2023-04-09T14:14:34;15.14;43.53
40059;SHT31;25763;49.972;8.568;2023-04-09T14:17:00;15.18;43.22
40059;SHT31;25763;49.972;8.568;2023-04-09T14:19:25;15.17;43.73
40059;SHT31;25763;49.972;8.568;2023-04-09T14:21:50;15.21;43.55
40059;SHT31;25763;49.972;8.568;2023-04-09T14:24:17;15.42;43.58
40059;SHT31;25763;49.972;8.568;2023-04-09T14:26:44;15.53;42.55
40059;SHT31;25763;49.972;8.568;2023-04-09T14:29:10;15.81;42.55
40059;SHT31;25763;49.972;8.568;2023-04-09T14:31:35;15.76;42.23
40059;SHT31;25763;49.972;8.568;2023-04-09T14:34:00;15.97;43.38
40059;SHT31;25763;49.972;8.568;2023-04-09T14:36:26;15.94;42.56
40059;SHT31;25763;49.972;8.568;2023-04-09T14:38:51;16.21;41.80
40059;SHT31;25763;49.972;8.568;2023-04-09T14:41:17;16.33;41.92
40059;SHT31;25763;49.972;8.568;2023-04-09T14:43:42;16.98;40.91
40059;SHT31;25763;49.972;8.568;2023-04-09T14:46:07;17.05;39.92
40059;SHT31;25763;49.972;8.568;2023-04-09T14:48:37;17.12;39.70
40059;SHT31;25763;49.972;8.568;2023-04-09T14:51:03;17.22;40.04
40059;SHT31;25763;49.972;8.568;2023-04-09T14:53:29;16.94;38.95
40059;SHT31;25763;49.972;8.568;2023-04-09T14:55:55;17.54;38.94
40059;SHT31;25763;49.972;8.568;2023-04-09T14:58:20;17.11;38.74
40059;SHT31;25763;49.972;8.568;2023-04-09T15:00:46;16.98;39.41
40059;SHT31;25763;49.972;8.568;2023-04-09T15:03:11;17.05;39.69
40059;SHT31;25763;49.972;8.568;2023-04-09T15:05:37;17.53;39.12
40059;SHT31;25763;49.972;8.568;2023-04-09T15:08:03;17.22;38.75
40059;SHT31;25763;49.972;8.568;2023-04-09T15:10:28;17.09;39.22
40059;SHT31;25763;49.972;8.568;2023-04-09T15:12:53;16.74;38.76
40059;SHT31;25763;49.972;8.568;2023-04-09T15:15:19;16.12;39.42
40059;SHT31;25763;49.972;8.568;2023-04-09T15:17:44;15.84;40.85
40059;SHT31;25763;49.972;8.568;2023-04-09T15:20:10;15.53;40.85
40059;SHT31;25763;49.972;8.568;2023-04-09T15:22:35;15.41;42.23
40059;SHT31;25763;49.972;8.568;2023-04-09T15:25:01;15.26;42.14
40059;SHT31;25763;49.972;8.568;2023-04-09T15:27:26;15.26;42.52
40059;SHT31;25763;49.972;8.568;2023-04-09T15:29:52;15.27;42.13
40059;SHT31;25763;49.972;8.568;2023-04-09T15:32:17;15.30;41.65
40059;SHT31;25763;49.972;8.568;2023-04-09T15:34:42;15.63;41.19
40059;SHT31;25763;49.972;8.568;2023-04-09T15:37:08;15.73;40.89
40059;SHT31;25763;49.972;8.568;2023-04-09T15:39:34;16.18;41.61
40059;SHT31;25763;49.972;8.568;2023-04-09T15:41:59;16.42;41.18
40059;SHT31;25763;49.972;8.568;2023-04-09T15:44:26;16.52;40.17
40059;SHT31;25763;49.972;8.568;2023-04-09T15:46:51;16.52;39.81
40059;SHT31;25763;49.972;8.568;2023-04-09T15:49:17;16.63;39.89
40059;SHT31;25763;49.972;8.568;2023-04-09T15:51:43;16.78;39.54